Aviation Digital Data Service (ADDS)

Output produced by METARs form (0826 UTC 22 July 2018)
found at http://aviationweather.gov/adds/metars/
 
KGLS 220752Z AUTO 22010KT 10SM CLR 28/26 A2995 RMK AO2 SLP142 T02780261